Briefing drone pour Saint-germain-des-fosses

Rechercher une autre localisation

Conditions de vol :


Nous sommes le : Mardi 16 août 2022
Il est 06:53 UTC (08:53 LT)

Lever de soleil : 04:20 UTC (06:20 LT)
Coucher de soleil : 19:20 UTC (21:20 LT)

Météo

L'essentiel des conditions de vol

VIGILANCE MÉTÉO FRANCE - Allier (03)
Vigilance Jaune : Orages
CARTE TEMSI
CARTES DES FRONTS
METAR de LFLV
LFLV 160630Z AUTO 17004KT 150V210 CAVOK 18/14 Q1009

Date d'émission: 16/08/2022
Heure d'émission: 06:30 UTC
Vent: 170° (variable du 150° au 210°) pour 4 KT (7 km/h)
Visibilité horizontale: > 10 km
Plafond : Plafond et visibilité OK (CAVOK)
Température: 18 °C
Point de rosée: 14 °C
Humidité: 77%
Pression (QNH): 1009 hPa
Prévision 24h pour Vichy (6 km)
Vent : 163° pour 1 KT (5 km/h)
Temperature Maxi: 15 °C
Temperature Min: 15 °C
Humidité : 98%
Condition : Légère pluie



Warning: count(): Parameter must be an array or an object that implements Countable in /homepages/6/d509196549/htdocs/droneoxygene/briefing.php on line 743
WEBCAM POUR SAINT-GERMAIN-DES-FOSSES

Réglementation

Voler en sécurité

CARTES AERONAUTIQUE 1/500.000
CARTE AZBA (Reseau basse altitude)
CARTES VAC (LFLV)
SUP AIP




Chargement des AIP...
NOTAM (SAINT-GERMAIN-DES-FOSSES + Terrain à proximité / FIR )




Chargement des NOTAMS...
CONTACT PREFECTURE 03


Avertissement : Les données mises à disposition sont indicatives. Oxygène Drone ne pourra être tenu responsable de dégâts causés aux biens et aux personnes.